Home > Products > Valid Products > MTR

000
SAUS46 KMTR 190856
MTRMHS
METAR KMHS 190856Z AUTO VRB04KT 10SM CLR 14/10 A3005 RMK AO2 SLP169
T01440100 51008





000
SAUS46 KMTR 190756
MTRMHS
METAR KMHS 190756Z AUTO 05003KT 10SM CLR 12/09 A3004 RMK AO2 SLP173
T01170089 402280094





000
SAUS46 KMTR 190656
MTRMHS
METAR KMHS 190656Z AUTO 00000KT 10SM CLR 10/08 A3004 RMK AO2 SLP173
T01000078





000
SAUS46 KMTR 190556
MTRMHS
METAR KMHS 190556Z AUTO 00000KT 10SM CLR 10/08 A3002 RMK AO2 SLP171
T01000078 10211 20100 52015





000
SAUS46 KMTR 190456
MTRMHS
METAR KMHS 190456Z AUTO 00000KT 10SM CLR 11/08 A3000 RMK AO2 SLP163
T01110083





000
SAUS46 KMTR 190356
MTRMHS
METAR KMHS 190356Z AUTO 07003KT 10SM CLR 14/10 A3000 RMK AO2 SLP159
T01390100





000
SAUS46 KMTR 190256
MTRMHS
METAR KMHS 190256Z AUTO 00000KT 10SM CLR 15/10 A2998 RMK AO2 SLP151
T01500100 53009





000
SAUS46 KMTR 190156
MTRMHS
METAR KMHS 190156Z AUTO 00000KT 10SM CLR 18/10 A2996 RMK AO2 SLP142
T01780100





000
SAUS46 KMTR 190056
MTRMHS
METAR KMHS 190056Z AUTO 00000KT 10SM CLR 21/09 A2994 RMK AO2 SLP133
T02060089





000
SAUS46 KMTR 182356
MTRMHS
METAR KMHS 182356Z AUTO VRB03KT 10SM CLR 21/08 A2994 RMK AO2 SLP134
T02060083 10228 20161 55007





000
SAUS46 KMTR 182256
MTRMHS
METAR KMHS 182256Z AUTO 00000KT 10SM CLR 22/09 A2994 RMK AO2 SLP131
T02220089





000
SAUS46 KMTR 182156
MTRMHS
METAR KMHS 182156Z AUTO 00000KT 10SM CLR 22/09 A2995 RMK AO2 SLP132
T02220094





000
SAUS46 KMTR 181956
MTRMHS
METAR KMHS 181956Z AUTO 00000KT 10SM FEW033 OVC050 18/13 A2997 RMK
AO2 SLP142 T01830128





000
SAUS46 KMTR 181856
MTRMHS
METAR KMHS 181856Z AUTO VRB03KT 10SM CLR 18/13 A2997 RMK AO2 SLP142
T01780128





000
SAUS46 KMTR 181756
MTRMHS
METAR KMHS 181756Z AUTO 00000KT 10SM FEW010 SCT044 SCT070 16/14
A2996 RMK AO2 SLP137 60012 T01610139 10172 20139 53014





000
SAUS46 KMTR 181656
MTRMHS
METAR KMHS 181656Z AUTO 00000KT 8SM FEW008 SCT039 BKN060 16/14 A2994
RMK AO2 RAE22 SLP130 P0003 T01560139





000
SAUS46 KMTR 181615
MTRMHS
SPECI KMHS 181615Z AUTO VRB03KT 3SM -RA BR FEW024 BKN032 OVC047
14/13 A2992 RMK AO2 P0002 T01440133





000
SAUS46 KMTR 181556
MTRMHS
METAR KMHS 181556Z AUTO 00000KT 4SM -RA BR FEW012 BKN027 OVC047
14/13 A2992 RMK AO2 SLP124 P0001 T01440133





000
SAUS46 KMTR 181456
MTRMHS
METAR KMHS 181456Z AUTO VRB03KT 6SM -RA BR BKN009 BKN016 OVC025
14/13 A2989 RMK AO2 SLP117 P0002 60008 T01390133 53017





000
SAUS46 KMTR 181436
MTRMHS
SPECI KMHS 181434Z AUTO VRB03KT 3SM -RA BR FEW009 OVC015 14/13 A2988
RMK AO2 P0002 T01390133





000
SAUS46 KMTR 181427
MTRMHS
SPECI KMHS 181427Z AUTO 00000KT 2SM -RA BR BKN015 OVC036 14/13 A2988
RMK AO2 VIS 1 1/2V3 P0001 T01390133





000
SAUS46 KMTR 181422
MTRMHS
SPECI KMHS 181420Z AUTO 00000KT 3SM -RA BR BKN015 BKN021 OVC031
14/13 A2988 RMK AO2 P0001 T01390133





000
SAUS46 KMTR 181356
MTRMHS
METAR KMHS 181356Z AUTO 5SM -RA BR FEW027 OVC035 14/13 A2987 RMK AO2
SLP106 P0005 T01390128





000
SAUS46 KMTR 181256
MTRMHS
METAR KMHS 181256Z AUTO 00000KT 4SM -RA BR FEW027 OVC036 14/13 A2985
RMK AO2 RAB34 SLP099 P0001 T01390128





000
SAUS46 KMTR 181156
MTRMHS
METAR KMHS 181156Z AUTO 00000KT 10SM FEW025 BKN036 OVC045 14/13
A2984 RMK AO2 RAE41 SLP092 P0002 60002 70002 T01390128 10200 20139
53002





000
SAUS46 KMTR 181142
MTRMHS
SPECI KMHS 181142Z AUTO 00000KT 10SM FEW028 BKN033 OVC039 14/13
A2983 RMK AO2 RAE41 P0002 T01390128





000
SAUS46 KMTR 181056
MTRMHS
METAR KMHS 181056Z AUTO 00000KT 10SM -RA BKN025 OVC032 14/13 A2983
RMK AO2 RAE07B23 SLP086 P0000 T01440128





000
SAUS46 KMTR 180956
MTRMHS
METAR KMHS 180956Z AUTO 00000KT 10SM -RA OVC031 15/12 A2983 RMK AO2
RAB04E24B52 SLP086 P0000 T01500117





000
SAUS46 KMTR 180856
MTRMHS
METAR KMHS 180856Z AUTO 00000KT 10SM OVC037 16/11 A2983 RMK AO2
RAE08 SLP085 P0000 60000 T01610106 50004





000
SAUS46 KMTR 180756
MTRMHS
METAR KMHS 180756Z AUTO VRB03KT 9SM -RA OVC043 17/09 A2984 RMK AO2
RAB02E28B55 SLP087 P0000 T01670089 402780117





000
SAUS46 KMTR 180656
MTRMHS
METAR KMHS 180656Z AUTO 00000KT 10SM OVC055 16/09 A2983 RMK AO2
RAB00E35 SLP087 P0000 T01610094





000
SAUS46 KMTR 180556
MTRMHS
METAR KMHS 180556Z AUTO 00000KT 10SM OVC060 20/06 A2982 RMK AO2
SLP079 T02000056 10244 20189 51009





000
SAUS46 KMTR 180456
MTRMHS
METAR KMHS 180456Z AUTO VRB03KT 10SM OVC080 19/07 A2982 RMK AO2
SLP080 T01940072





000
SAUS46 KMTR 180356
MTRMHS
METAR KMHS 180356Z AUTO 00000KT 10SM BKN100 BKN120 19/06 A2982 RMK
AO2 SLP087 T01940056





000
SAUS46 KMTR 180256
MTRMHS
METAR KMHS 180256Z AUTO VRB03KT 10SM CLR 20/05 A2979 RMK AO2 SLP080
T02000050 53003





000
SAUS46 KMTR 180156
MTRMHS
METAR KMHS 180156Z AUTO 00000KT 10SM FEW060 21/04 A2978 RMK AO2
SLP078 T02110044





000
SAUS46 KMTR 180056
MTRMHS
METAR KMHS 180056Z AUTO 00000KT 10SM CLR 22/04 A2978 RMK AO2 SLP071
T02220039





000
SAUS46 KMTR 172356
MTRMHS
METAR KMHS 172356Z AUTO 00000KT 10SM CLR 24/04 A2978 RMK AO2 SLP068
T02440044 10278 20233 58015





000
SAUS46 KMTR 172256
MTRMHS
METAR KMHS 172256Z AUTO 00000KT 10SM CLR 26/05 A2980 RMK AO2 SLP071
T02610050





000
SAUS46 KMTR 172156
MTRMHS
METAR KMHS 172156Z AUTO VRB04KT 10SM CLR 27/04 A2981 RMK AO2 SLP078
T02670044





000
SAUS46 KMTR 172056
MTRMHS
METAR KMHS 172056Z AUTO 00000KT 10SM CLR 27/03 A2983 RMK AO2 SLP085
T02670033 58012





000
SAUS46 KMTR 171956
MTRMHS
METAR KMHS 171956Z AUTO 10SM CLR 27/02 A2984 RMK AO2 SLP091
T02670022





000
SAUS46 KMTR 171856
MTRMHS
METAR KMHS 171856Z AUTO 00000KT 10SM CLR 26/03 A2986 RMK AO2 SLP099
T02560028





000
SAUS46 KMTR 171756
MTRMHS
METAR KMHS 171756Z AUTO 00000KT 10SM CLR 24/03 A2986 RMK AO2 SLP102
T02390028 10239 20128 58008





000
SAUS46 KMTR 171656
MTRMHS
METAR KMHS 171656Z AUTO VRB05KT 10SM CLR 23/02 A2987 RMK AO2 SLP106
T02280022





000
SAUS46 KMTR 171556
MTRMHS
METAR KMHS 171556Z AUTO 00000KT 10SM CLR 18/02 A2988 RMK AO2 SLP114
T01830022





000
SAUS46 KMTR 171458
MTRMHS
METAR KMHS 171456Z AUTO 00000KT 10SM CLR 14/03 A2989 RMK AO2 SLP118
T01440028 51002





000
SAUS46 KMTR 171356
MTRMHS
METAR KMHS 171356Z AUTO 00000KT 10SM CLR 13/M01 A2989 RMK AO2 SLP115
T01331006





000
SAUS46 KMTR 171256
MTRMHS
METAR KMHS 171256Z AUTO 00000KT 10SM CLR 15/M01 A2989 RMK AO2 SLP109
T01501011





000
SAUS46 KMTR 171056
MTRMHS
METAR KMHS 171056Z AUTO 00000KT 10SM CLR 18/M03 A2989 RMK AO2 SLP105
T01781033





000
SAUS46 KMTR 170956
MTRMHS
METAR KMHS 170956Z AUTO 00000KT 10SM CLR 16/M02 A2991 RMK AO2 SLP111
T01611022





000
SAUS46 KMTR 170857
MTRMHS
METAR KMHS 170856Z AUTO 00000KT 10SM CLR 14/01 A2991 RMK AO2 SLP114
T01390006 56004





000
SAUS46 KMTR 170756
MTRMHS
METAR KMHS 170756Z AUTO 00000KT 10SM CLR 12/02 A2992 RMK AO2 SLP119
T01220022 402780111





000
SAUS46 KMTR 170656
MTRMHS
METAR KMHS 170656Z AUTO 00000KT 10SM CLR 12/02 A2991 RMK AO2 SLP120
T01220017





000
SAUS46 KMTR 170456
MTRMHS
METAR KMHS 170456Z AUTO 00000KT 10SM CLR 14/02 A2993 RMK AO2 SLP126
T01390022





000
SAUS46 KMTR 170356
MTRMHS
METAR KMHS 170356Z AUTO 00000KT 10SM CLR 14/03 A2994 RMK AO2 SLP131
T01440028





000
SAUS46 KMTR 170356
MTRMHS
METAR KMHS 170356Z AUTO 00000KT 10SM CLR 14/03 A2994 RMK AO2 SLP131
T01440028





000
SAUS46 KMTR 170257
MTRMHS
METAR KMHS 170256Z AUTO 00000KT 10SM CLR 17/03 A2994 RMK AO2 SLP136
T01720028 55004





000
SAUS46 KMTR 170156
MTRMHS
METAR KMHS 170156Z AUTO 00000KT 10SM CLR 21/01 A2994 RMK AO2 SLP132
T02060011





000
SAUS46 KMTR 170056
MTRMHS
METAR KMHS 170056Z AUTO 00000KT 10SM CLR 24/M01 A2995 RMK AO2 SLP130
T02391006





000
SAUS46 KMTR 162356
MTRMHS
METAR KMHS 162356Z AUTO 00000KT 10SM CLR 26/00 A2995 RMK AO2 SLP128
T02560000 10278 20228 56010





000
SAUS46 KMTR 162256
MTRMHS
METAR KMHS 162256Z AUTO VRB03KT 10SM CLR 27/01 A2996 RMK AO2 SLP128
T02670006





000
SAUS46 KMTR 162156
MTRMHS
METAR KMHS 162156Z AUTO 10SM CLR 26/01 A2997 RMK AO2 SLP135
T02560011





000
SAUS46 KMTR 162056
MTRMHS
METAR KMHS 162056Z AUTO 00000KT 10SM CLR 27/01 A2999 RMK AO2 SLP137
T02670011 58007





000
SAUS46 KMTR 161956
MTRMHS
METAR KMHS 161956Z AUTO 00000KT 10SM CLR 27/02 A2999 RMK AO2 SLP139
T02670022





000
SAUS46 KMTR 161858
MTRMHS
METAR KMHS 161856Z AUTO 00000KT 10SM CLR 24/03 A3001 RMK AO2 SLP144
T02390028





000
SAUS46 KMTR 161756
MTRMHS
METAR KMHS 161756Z AUTO VRB03KT 10SM CLR 23/03 A3001 RMK AO2 SLP145
T02280028 10233 20111 52004





000
SAUS46 KMTR 161356
MTRMHS
METAR KMHS 161356Z AUTO 00000KT 10SM CLR 13/03 A2999 RMK AO2 SLP147
T01330033





000
SAUS46 KMTR 161256
MTRMHS
METAR KMHS 161256Z AUTO 00000KT 10SM CLR 15/03 A2998 RMK AO2 SLP138
T01500033





000
SAUS46 KMTR 161156
MTRMHS
METAR KMHS 161156Z AUTO 00000KT 10SM CLR 16/03 A2998 RMK AO2 SLP134
7//// T01610028 10211 20156 57004 $





    US Dept of Commerce
    National Oceanic and Atmospheric Administration
    National Weather Service
    1325 East West Highway
    Silver Spring, MD 20910
    Page Author: NWS Internet Services Team
Disclaimer
Information Quality
Credits
Glossary
Privacy Policy
Freedom of Information Act (FOIA)
About Us
Career Opportunities